Back to top

Greybull, WY weather

South Big Horn County Airport, Greybull, WY: 1/20/2020 04:53
Visibility10 statute milesclear sky
View 7-Day Forecast
Area Summary
Sky/CloudsSky Clear
Weather [last 24 hours]None
Pressure30.37 in.Hg (1029 hPa)
3-hour Pressure Tendency0.008858 in.Hg (0.3 hPa) Decreasing, then increasing
Dew Point5 °F (-15 °C)
Relative Humidity76.4 %
Temperature10.9 °F (-11.7 °C)blue thermometer
Wind Chill4.61 °F (-15.2 °C)
Reading TimeMinimum to Maximum Temperature
6-hr ending 1/20@04:5310 °F to 21 °F (-12.2 °C to -6.1 °C)
6-hr ending 1/19@22:5318 °F to 35.1 °F (-7.8 °C to 1.7 °C)
6-hr ending 1/19@16:5326.1 °F to 41 °F (-3.3 °C to 5 °C)
6-hr ending 1/19@10:539 °F to 26.1 °F (-12.8 °C to -3.3 °C)
24-hr ending 1/19@23:539 °F to 41 °F (-12.8 °C to 5 °C)
Wind3.45 MPH (3 KT) green arrow pointing 112.5 degrees
Wind FromEast/Southeast (120 Degrees)
Twilight Begins07:08Sunshine Yesterday
Sunrise07:40N/A
Sunset17:07
Twilight Ends17:39
METARKGEY 201153Z AUTO 12003KT 10SM CLR M12/M15 A3037 RMK AO2 SLP333 T11171150 11061 21122 55003
Tags: